sensor_id;sensor_type;location;lat;lon;timestamp;temperature;humidity
7004;DHT22;3542;48.812;9.146;2023-04-06T00:00:43;0.00;99.90
7004;DHT22;3542;48.812;9.146;2023-04-06T00:03:08;0.00;99.90
7004;DHT22;3542;48.812;9.146;2023-04-06T00:05:34;0.10;99.90
7004;DHT22;3542;48.812;9.146;2023-04-06T00:07:59;0.00;99.90
7004;DHT22;3542;48.812;9.146;2023-04-06T00:10:25;-0.10;99.90
7004;DHT22;3542;48.812;9.146;2023-04-06T00:12:51;-0.10;99.90
7004;DHT22;3542;48.812;9.146;2023-04-06T00:15:17;-0.10;99.90
7004;DHT22;3542;48.812;9.146;2023-04-06T00:17:42;-0.10;99.90
7004;DHT22;3542;48.812;9.146;2023-04-06T00:20:08;-0.10;99.90
7004;DHT22;3542;48.812;9.146;2023-04-06T00:22:34;-0.10;99.90
7004;DHT22;3542;48.812;9.146;2023-04-06T00:25:00;-0.20;99.90
7004;DHT22;3542;48.812;9.146;2023-04-06T00:27:26;-0.20;99.90
7004;DHT22;3542;48.812;9.146;2023-04-06T00:29:51;-0.20;99.90
7004;DHT22;3542;48.812;9.146;2023-04-06T00:32:17;-0.30;99.90
7004;DHT22;3542;48.812;9.146;2023-04-06T00:34:42;-0.30;99.90
7004;DHT22;3542;48.812;9.146;2023-04-06T00:37:08;-0.30;99.90
7004;DHT22;3542;48.812;9.146;2023-04-06T00:39:33;-0.30;99.90
7004;DHT22;3542;48.812;9.146;2023-04-06T00:41:59;-0.40;99.90
7004;DHT22;3542;48.812;9.146;2023-04-06T00:44:25;-0.40;99.90
7004;DHT22;3542;48.812;9.146;2023-04-06T00:46:52;-0.40;99.90
7004;DHT22;3542;48.812;9.146;2023-04-06T00:49:17;-0.30;99.90
7004;DHT22;3542;48.812;9.146;2023-04-06T00:51:43;-0.30;99.90
7004;DHT22;3542;48.812;9.146;2023-04-06T00:54:09;-0.30;99.90
7004;DHT22;3542;48.812;9.146;2023-04-06T00:56:35;-0.30;99.90
7004;DHT22;3542;48.812;9.146;2023-04-06T00:59:00;-0.30;99.90
7004;DHT22;3542;48.812;9.146;2023-04-06T02:32:14;-0.90;99.90
7004;DHT22;3542;48.812;9.146;2023-04-06T02:34:39;-1.00;99.90
7004;DHT22;3542;48.812;9.146;2023-04-06T02:37:05;-1.00;99.90
7004;DHT22;3542;48.812;9.146;2023-04-06T02:39:30;-1.00;99.90
7004;DHT22;3542;48.812;9.146;2023-04-06T02:41:56;-1.00;99.90
7004;DHT22;3542;48.812;9.146;2023-04-06T02:44:22;-1.10;99.90
7004;DHT22;3542;48.812;9.146;2023-04-06T02:46:48;-1.00;99.90
7004;DHT22;3542;48.812;9.146;2023-04-06T02:49:13;-1.00;99.90
7004;DHT22;3542;48.812;9.146;2023-04-06T02:51:39;-1.00;99.90
7004;DHT22;3542;48.812;9.146;2023-04-06T02:54:04;-1.10;99.90
7004;DHT22;3542;48.812;9.146;2023-04-06T02:56:30;-1.10;99.90
7004;DHT22;3542;48.812;9.146;2023-04-06T02:58:55;-1.10;99.90
7004;DHT22;3542;48.812;9.146;2023-04-06T03:01:21;-1.20;99.90
7004;DHT22;3542;48.812;9.146;2023-04-06T03:03:46;-1.20;99.90
7004;DHT22;3542;48.812;9.146;2023-04-06T03:06:12;-1.10;99.90
7004;DHT22;3542;48.812;9.146;2023-04-06T03:08:37;-1.10;99.90
7004;DHT22;3542;48.812;9.146;2023-04-06T03:11:03;-1.20;99.90
7004;DHT22;3542;48.812;9.146;2023-04-06T03:13:28;-1.20;99.90
7004;DHT22;3542;48.812;9.146;2023-04-06T03:15:54;-1.20;99.90
7004;DHT22;3542;48.812;9.146;2023-04-06T03:18:23;-1.30;99.90
7004;DHT22;3542;48.812;9.146;2023-04-06T03:20:49;-1.20;99.90
7004;DHT22;3542;48.812;9.146;2023-04-06T03:23:15;-1.20;99.90
7004;DHT22;3542;48.812;9.146;2023-04-06T03:25:41;-1.30;99.90
7004;DHT22;3542;48.812;9.146;2023-04-06T03:28:06;-1.30;99.90
7004;DHT22;3542;48.812;9.146;2023-04-06T03:30:32;-1.30;99.90
7004;DHT22;3542;48.812;9.146;2023-04-06T03:32:57;-1.40;99.90
7004;DHT22;3542;48.812;9.146;2023-04-06T03:35:23;-1.40;99.90
7004;DHT22;3542;48.812;9.146;2023-04-06T03:37:49;-1.40;99.90
7004;DHT22;3542;48.812;9.146;2023-04-06T03:40:15;-1.40;99.90
7004;DHT22;3542;48.812;9.146;2023-04-06T03:42:41;-1.40;99.90
7004;DHT22;3542;48.812;9.146;2023-04-06T03:45:07;-1.40;99.90
7004;DHT22;3542;48.812;9.146;2023-04-06T03:47:32;-1.40;99.90
7004;DHT22;3542;48.812;9.146;2023-04-06T03:49:58;-1.50;99.90
7004;DHT22;3542;48.812;9.146;2023-04-06T03:52:23;-1.50;99.90
7004;DHT22;3542;48.812;9.146;2023-04-06T03:54:49;-1.50;99.90
7004;DHT22;3542;48.812;9.146;2023-04-06T03:57:14;-1.50;99.90
7004;DHT22;3542;48.812;9.146;2023-04-06T03:59:40;-1.40;99.90
7004;DHT22;3542;48.812;9.146;2023-04-06T04:02:06;-1.40;99.90
7004;DHT22;3542;48.812;9.146;2023-04-06T04:04:31;-1.40;99.90
7004;DHT22;3542;48.812;9.146;2023-04-06T04:06:57;-1.50;99.90
7004;DHT22;3542;48.812;9.146;2023-04-06T04:09:22;-1.50;99.90
7004;DHT22;3542;48.812;9.146;2023-04-06T04:11:48;-1.40;99.90
7004;DHT22;3542;48.812;9.146;2023-04-06T04:14:13;-1.50;99.90
7004;DHT22;3542;48.812;9.146;2023-04-06T04:16:39;-1.60;99.90
7004;DHT22;3542;48.812;9.146;2023-04-06T04:19:05;-1.60;99.90
7004;DHT22;3542;48.812;9.146;2023-04-06T04:21:30;-1.60;99.90
7004;DHT22;3542;48.812;9.146;2023-04-06T04:23:56;-1.60;99.90
7004;DHT22;3542;48.812;9.146;2023-04-06T04:26:22;-1.60;99.90
7004;DHT22;3542;48.812;9.146;2023-04-06T04:28:47;-1.70;99.90
7004;DHT22;3542;48.812;9.146;2023-04-06T04:31:13;-1.70;99.90
7004;DHT22;3542;48.812;9.146;2023-04-06T04:33:38;-1.60;99.90
7004;DHT22;3542;48.812;9.146;2023-04-06T04:36:04;-1.60;99.90
7004;DHT22;3542;48.812;9.146;2023-04-06T04:38:30;-1.60;99.90
7004;DHT22;3542;48.812;9.146;2023-04-06T04:40:55;-1.60;99.90
7004;DHT22;3542;48.812;9.146;2023-04-06T04:43:21;-1.60;99.90
7004;DHT22;3542;48.812;9.146;2023-04-06T04:45:46;-1.60;99.90
7004;DHT22;3542;48.812;9.146;2023-04-06T04:48:12;-1.50;99.90
7004;DHT22;3542;48.812;9.146;2023-04-06T04:50:37;-1.50;99.90
7004;DHT22;3542;48.812;9.146;2023-04-06T04:53:03;-1.50;99.90
7004;DHT22;3542;48.812;9.146;2023-04-06T04:55:31;-1.50;99.90
7004;DHT22;3542;48.812;9.146;2023-04-06T04:57:56;-1.50;99.90
7004;DHT22;3542;48.812;9.146;2023-04-06T05:00:22;-1.50;99.90
7004;DHT22;3542;48.812;9.146;2023-04-06T05:02:47;-1.40;99.90
7004;DHT22;3542;48.812;9.146;2023-04-06T05:05:13;-1.40;99.90
7004;DHT22;3542;48.812;9.146;2023-04-06T05:07:39;-1.40;99.90
7004;DHT22;3542;48.812;9.146;2023-04-06T05:10:05;-1.40;99.90
7004;DHT22;3542;48.812;9.146;2023-04-06T05:12:30;-1.30;99.90
7004;DHT22;3542;48.812;9.146;2023-04-06T05:14:56;-1.20;99.90
7004;DHT22;3542;48.812;9.146;2023-04-06T05:17:22;-1.20;99.90
7004;DHT22;3542;48.812;9.146;2023-04-06T05:19:47;-1.20;99.90
7004;DHT22;3542;48.812;9.146;2023-04-06T05:22:13;-1.10;99.90
7004;DHT22;3542;48.812;9.146;2023-04-06T05:24:41;-1.00;99.90
7004;DHT22;3542;48.812;9.146;2023-04-06T05:27:06;-0.90;99.90
7004;DHT22;3542;48.812;9.146;2023-04-06T05:29:33;-0.90;99.90
7004;DHT22;3542;48.812;9.146;2023-04-06T05:31:58;-0.70;99.90
7004;DHT22;3542;48.812;9.146;2023-04-06T05:34:24;-0.30;99.90
7004;DHT22;3542;48.812;9.146;2023-04-06T05:36:49;0.00;99.90
7004;DHT22;3542;48.812;9.146;2023-04-06T05:39:15;0.30;99.90
7004;DHT22;3542;48.812;9.146;2023-04-06T05:41:40;0.40;99.90
7004;DHT22;3542;48.812;9.146;2023-04-06T05:44:06;0.60;99.90
7004;DHT22;3542;48.812;9.146;2023-04-06T05:46:31;0.90;99.90
7004;DHT22;3542;48.812;9.146;2023-04-06T05:48:57;1.20;99.90
7004;DHT22;3542;48.812;9.146;2023-04-06T05:51:22;1.20;99.90
7004;DHT22;3542;48.812;9.146;2023-04-06T05:53:48;1.20;99.90
7004;DHT22;3542;48.812;9.146;2023-04-06T05:56:13;1.30;99.90
7004;DHT22;3542;48.812;9.146;2023-04-06T05:58:39;1.50;99.90
7004;DHT22;3542;48.812;9.146;2023-04-06T06:01:04;1.90;99.90
7004;DHT22;3542;48.812;9.146;2023-04-06T06:03:30;2.10;99.90
7004;DHT22;3542;48.812;9.146;2023-04-06T06:06:03;2.20;99.90
7004;DHT22;3542;48.812;9.146;2023-04-06T06:08:29;2.30;99.90
7004;DHT22;3542;48.812;9.146;2023-04-06T06:10:55;2.50;99.90
7004;DHT22;3542;48.812;9.146;2023-04-06T06:13:21;3.00;99.90
7004;DHT22;3542;48.812;9.146;2023-04-06T06:15:47;4.20;99.90
7004;DHT22;3542;48.812;9.146;2023-04-06T06:18:12;6.00;99.90
7004;DHT22;3542;48.812;9.146;2023-04-06T06:20:38;7.70;99.90
7004;DHT22;3542;48.812;9.146;2023-04-06T06:23:03;9.00;99.90
7004;DHT22;3542;48.812;9.146;2023-04-06T06:25:29;10.00;99.90
7004;DHT22;3542;48.812;9.146;2023-04-06T06:27:56;11.30;99.90
7004;DHT22;3542;48.812;9.146;2023-04-06T06:30:22;12.10;99.90
7004;DHT22;3542;48.812;9.146;2023-04-06T06:32:47;12.70;99.90
7004;DHT22;3542;48.812;9.146;2023-04-06T06:35:13;13.30;99.90
7004;DHT22;3542;48.812;9.146;2023-04-06T06:37:38;13.60;99.90
7004;DHT22;3542;48.812;9.146;2023-04-06T06:40:04;13.70;99.90
7004;DHT22;3542;48.812;9.146;2023-04-06T06:42:30;14.30;99.90
7004;DHT22;3542;48.812;9.146;2023-04-06T06:44:55;14.50;99.30
7004;DHT22;3542;48.812;9.146;2023-04-06T06:47:21;14.60;97.80
7004;DHT22;3542;48.812;9.146;2023-04-06T06:49:46;14.40;97.90
7004;DHT22;3542;48.812;9.146;2023-04-06T06:52:12;13.70;97.40
7004;DHT22;3542;48.812;9.146;2023-04-06T06:54:37;13.00;99.00
7004;DHT22;3542;48.812;9.146;2023-04-06T06:57:03;12.80;99.50
7004;DHT22;3542;48.812;9.146;2023-04-06T06:59:28;12.10;99.80
7004;DHT22;3542;48.812;9.146;2023-04-06T07:01:54;12.00;99.90
7004;DHT22;3542;48.812;9.146;2023-04-06T07:04:19;11.70;99.90
7004;DHT22;3542;48.812;9.146;2023-04-06T07:06:45;11.50;99.90
7004;DHT22;3542;48.812;9.146;2023-04-06T07:09:11;11.10;99.90
7004;DHT22;3542;48.812;9.146;2023-04-06T07:11:36;11.00;99.90
7004;DHT22;3542;48.812;9.146;2023-04-06T07:14:02;11.10;99.90
7004;DHT22;3542;48.812;9.146;2023-04-06T07:16:27;11.10;99.90
7004;DHT22;3542;48.812;9.146;2023-04-06T07:18:53;11.10;99.90
7004;DHT22;3542;48.812;9.146;2023-04-06T07:21:18;11.50;99.90
7004;DHT22;3542;48.812;9.146;2023-04-06T07:23:44;11.60;99.90
7004;DHT22;3542;48.812;9.146;2023-04-06T07:26:09;11.50;99.90
7004;DHT22;3542;48.812;9.146;2023-04-06T07:28:35;11.40;99.90
7004;DHT22;3542;48.812;9.146;2023-04-06T07:31:00;11.40;99.90
7004;DHT22;3542;48.812;9.146;2023-04-06T07:33:26;11.70;99.90
7004;DHT22;3542;48.812;9.146;2023-04-06T07:35:55;11.80;99.90
7004;DHT22;3542;48.812;9.146;2023-04-06T07:38:20;12.00;99.90
7004;DHT22;3542;48.812;9.146;2023-04-06T07:40:46;11.90;99.90
7004;DHT22;3542;48.812;9.146;2023-04-06T07:43:11;12.10;99.90
7004;DHT22;3542;48.812;9.146;2023-04-06T07:45:37;11.90;99.90
7004;DHT22;3542;48.812;9.146;2023-04-06T07:48:02;12.10;99.90
7004;DHT22;3542;48.812;9.146;2023-04-06T07:50:28;12.10;99.90
7004;DHT22;3542;48.812;9.146;2023-04-06T07:52:53;12.10;99.90
7004;DHT22;3542;48.812;9.146;2023-04-06T07:55:20;12.20;99.90
7004;DHT22;3542;48.812;9.146;2023-04-06T07:57:45;12.40;99.90
7004;DHT22;3542;48.812;9.146;2023-04-06T08:00:12;12.70;99.90
7004;DHT22;3542;48.812;9.146;2023-04-06T08:02:38;12.60;99.50
7004;DHT22;3542;48.812;9.146;2023-04-06T08:05:04;12.60;99.10
7004;DHT22;3542;48.812;9.146;2023-04-06T08:07:29;12.60;98.70
7004;DHT22;3542;48.812;9.146;2023-04-06T08:09:55;12.90;98.70
7004;DHT22;3542;48.812;9.146;2023-04-06T08:12:20;13.40;99.50
7004;DHT22;3542;48.812;9.146;2023-04-06T08:14:46;13.40;98.40
7004;DHT22;3542;48.812;9.146;2023-04-06T08:17:11;13.40;97.60
7004;DHT22;3542;48.812;9.146;2023-04-06T08:19:37;13.70;98.00
7004;DHT22;3542;48.812;9.146;2023-04-06T08:22:02;13.90;96.40
7004;DHT22;3542;48.812;9.146;2023-04-06T08:24:28;14.10;96.90
7004;DHT22;3542;48.812;9.146;2023-04-06T08:26:53;14.00;95.20
7004;DHT22;3542;48.812;9.146;2023-04-06T08:29:19;13.60;94.90
7004;DHT22;3542;48.812;9.146;2023-04-06T08:31:44;13.70;95.60
7004;DHT22;3542;48.812;9.146;2023-04-06T08:34:10;13.70;96.00
7004;DHT22;3542;48.812;9.146;2023-04-06T08:36:36;14.00;97.00
7004;DHT22;3542;48.812;9.146;2023-04-06T08:39:01;14.30;95.20
7004;DHT22;3542;48.812;9.146;2023-04-06T08:41:27;14.60;95.80
7004;DHT22;3542;48.812;9.146;2023-04-06T08:43:57;14.60;93.50
7004;DHT22;3542;48.812;9.146;2023-04-06T08:46:23;15.00;93.40
7004;DHT22;3542;48.812;9.146;2023-04-06T08:48:59;15.40;91.60
7004;DHT22;3542;48.812;9.146;2023-04-06T08:51:25;15.50;91.20
7004;DHT22;3542;48.812;9.146;2023-04-06T08:53:54;15.60;90.60
7004;DHT22;3542;48.812;9.146;2023-04-06T08:56:24;15.70;89.90
7004;DHT22;3542;48.812;9.146;2023-04-06T08:58:51;15.70;88.90
7004;DHT22;3542;48.812;9.146;2023-04-06T09:01:18;16.20;86.60
7004;DHT22;3542;48.812;9.146;2023-04-06T09:03:46;16.40;85.50
7004;DHT22;3542;48.812;9.146;2023-04-06T09:06:13;16.50;82.70
7004;DHT22;3542;48.812;9.146;2023-04-06T09:08:40;16.50;83.50
7004;DHT22;3542;48.812;9.146;2023-04-06T09:11:06;16.70;81.30
7004;DHT22;3542;48.812;9.146;2023-04-06T09:13:47;16.80;80.70
7004;DHT22;3542;48.812;9.146;2023-04-06T09:16:13;17.00;77.60
7004;DHT22;3542;48.812;9.146;2023-04-06T09:18:39;17.40;73.90
7004;DHT22;3542;48.812;9.146;2023-04-06T09:21:06;17.50;74.70
7004;DHT22;3542;48.812;9.146;2023-04-06T09:23:32;17.20;71.40
7004;DHT22;3542;48.812;9.146;2023-04-06T09:26:15;17.30;70.70
7004;DHT22;3542;48.812;9.146;2023-04-06T09:28:45;17.40;71.00
7004;DHT22;3542;48.812;9.146;2023-04-06T09:31:13;17.40;72.60
7004;DHT22;3542;48.812;9.146;2023-04-06T09:33:43;17.80;71.90
7004;DHT22;3542;48.812;9.146;2023-04-06T09:36:08;17.40;66.70
7004;DHT22;3542;48.812;9.146;2023-04-06T09:38:37;17.60;68.00
7004;DHT22;3542;48.812;9.146;2023-04-06T09:41:03;17.70;70.50
7004;DHT22;3542;48.812;9.146;2023-04-06T09:43:29;17.90;70.30
7004;DHT22;3542;48.812;9.146;2023-04-06T09:45:56;18.00;70.30
7004;DHT22;3542;48.812;9.146;2023-04-06T09:48:24;18.00;68.50
7004;DHT22;3542;48.812;9.146;2023-04-06T09:50:52;18.10;69.20
7004;DHT22;3542;48.812;9.146;2023-04-06T09:53:20;18.00;68.30
7004;DHT22;3542;48.812;9.146;2023-04-06T09:55:48;18.10;65.20
7004;DHT22;3542;48.812;9.146;2023-04-06T09:58:17;18.20;66.30
7004;DHT22;3542;48.812;9.146;2023-04-06T10:06:05;18.70;62.40
7004;DHT22;3542;48.812;9.146;2023-04-06T10:08:38;18.50;61.90
7004;DHT22;3542;48.812;9.146;2023-04-06T10:11:06;18.70;64.30
7004;DHT22;3542;48.812;9.146;2023-04-06T10:13:31;18.50;64.70
7004;DHT22;3542;48.812;9.146;2023-04-06T10:15:57;18.80;63.40
7004;DHT22;3542;48.812;9.146;2023-04-06T10:18:25;19.00;63.50
7004;DHT22;3542;48.812;9.146;2023-04-06T10:20:56;19.30;62.60
7004;DHT22;3542;48.812;9.146;2023-04-06T10:25:58;18.10;59.40
7004;DHT22;3542;48.812;9.146;2023-04-06T10:28:24;18.40;60.40
7004;DHT22;3542;48.812;9.146;2023-04-06T10:30:57;18.00;60.30
7004;DHT22;3542;48.812;9.146;2023-04-06T10:33:23;17.90;63.10
7004;DHT22;3542;48.812;9.146;2023-04-06T10:35:48;18.20;62.20
7004;DHT22;3542;48.812;9.146;2023-04-06T10:38:14;17.80;59.60
7004;DHT22;3542;48.812;9.146;2023-04-06T10:40:41;18.10;62.00
7004;DHT22;3542;48.812;9.146;2023-04-06T10:43:14;17.80;59.00
7004;DHT22;3542;48.812;9.146;2023-04-06T10:45:43;17.60;58.30
7004;DHT22;3542;48.812;9.146;2023-04-06T10:48:16;18.00;58.60
7004;DHT22;3542;48.812;9.146;2023-04-06T10:50:47;17.90;59.30
7004;DHT22;3542;48.812;9.146;2023-04-06T10:53:21;17.70;58.30
7004;DHT22;3542;48.812;9.146;2023-04-06T10:55:50;17.80;59.80
7004;DHT22;3542;48.812;9.146;2023-04-06T10:58:15;17.70;58.50
7004;DHT22;3542;48.812;9.146;2023-04-06T11:00:48;17.70;58.10
7004;DHT22;3542;48.812;9.146;2023-04-06T11:03:14;17.70;58.60
7004;DHT22;3542;48.812;9.146;2023-04-06T11:05:47;17.50;57.00
7004;DHT22;3542;48.812;9.146;2023-04-06T11:08:24;17.40;57.00
7004;DHT22;3542;48.812;9.146;2023-04-06T11:10:50;17.30;57.20
7004;DHT22;3542;48.812;9.146;2023-04-06T11:13:15;17.30;60.00
7004;DHT22;3542;48.812;9.146;2023-04-06T11:15:41;17.40;58.30
7004;DHT22;3542;48.812;9.146;2023-04-06T11:18:06;17.50;58.80
7004;DHT22;3542;48.812;9.146;2023-04-06T11:20:32;17.40;56.90
7004;DHT22;3542;48.812;9.146;2023-04-06T11:22:57;16.70;58.70
7004;DHT22;3542;48.812;9.146;2023-04-06T11:25:24;16.50;57.80
7004;DHT22;3542;48.812;9.146;2023-04-06T11:27:51;16.40;57.80
7004;DHT22;3542;48.812;9.146;2023-04-06T11:30:17;16.60;58.50
7004;DHT22;3542;48.812;9.146;2023-04-06T11:32:44;16.60;57.70
7004;DHT22;3542;48.812;9.146;2023-04-06T11:35:31;16.70;59.50
7004;DHT22;3542;48.812;9.146;2023-04-06T11:37:57;16.50;58.40
7004;DHT22;3542;48.812;9.146;2023-04-06T11:40:23;16.40;57.50
7004;DHT22;3542;48.812;9.146;2023-04-06T11:42:56;16.40;57.70
7004;DHT22;3542;48.812;9.146;2023-04-06T11:45:22;16.30;58.60
7004;DHT22;3542;48.812;9.146;2023-04-06T11:47:58;16.40;60.20
7004;DHT22;3542;48.812;9.146;2023-04-06T11:50:25;16.50;59.80
7004;DHT22;3542;48.812;9.146;2023-04-06T11:53:00;16.40;56.90
7004;DHT22;3542;48.812;9.146;2023-04-06T11:55:26;16.20;57.60
7004;DHT22;3542;48.812;9.146;2023-04-06T11:57:52;16.40;59.00
7004;DHT22;3542;48.812;9.146;2023-04-06T12:00:18;16.40;57.00
7004;DHT22;3542;48.812;9.146;2023-04-06T12:02:48;16.50;58.70
7004;DHT22;3542;48.812;9.146;2023-04-06T12:05:14;16.50;59.40
7004;DHT22;3542;48.812;9.146;2023-04-06T12:07:40;16.70;59.10
7004;DHT22;3542;48.812;9.146;2023-04-06T12:10:06;16.60;57.70
7004;DHT22;3542;48.812;9.146;2023-04-06T12:12:32;16.30;57.50
7004;DHT22;3542;48.812;9.146;2023-04-06T12:14:57;15.90;57.50
7004;DHT22;3542;48.812;9.146;2023-04-06T12:17:23;16.00;58.20
7004;DHT22;3542;48.812;9.146;2023-04-06T12:19:49;16.30;58.20
7004;DHT22;3542;48.812;9.146;2023-04-06T12:22:17;16.40;58.40
7004;DHT22;3542;48.812;9.146;2023-04-06T12:24:42;16.30;56.90
7004;DHT22;3542;48.812;9.146;2023-04-06T12:27:08;16.20;57.40
7004;DHT22;3542;48.812;9.146;2023-04-06T12:29:34;16.00;58.10
7004;DHT22;3542;48.812;9.146;2023-04-06T12:31:59;15.80;58.80
7004;DHT22;3542;48.812;9.146;2023-04-06T12:34:26;15.70;56.80
7004;DHT22;3542;48.812;9.146;2023-04-06T12:36:52;15.60;57.00
7004;DHT22;3542;48.812;9.146;2023-04-06T12:39:18;15.60;57.50
7004;DHT22;3542;48.812;9.146;2023-04-06T12:41:44;15.20;56.60
7004;DHT22;3542;48.812;9.146;2023-04-06T12:44:09;15.20;59.20
7004;DHT22;3542;48.812;9.146;2023-04-06T12:46:36;15.40;59.30
7004;DHT22;3542;48.812;9.146;2023-04-06T12:49:02;15.20;59.00
7004;DHT22;3542;48.812;9.146;2023-04-06T12:51:28;15.00;58.30
7004;DHT22;3542;48.812;9.146;2023-04-06T12:53:54;14.90;57.70
7004;DHT22;3542;48.812;9.146;2023-04-06T12:56:19;15.00;58.40
7004;DHT22;3542;48.812;9.146;2023-04-06T12:58:47;15.00;59.40
7004;DHT22;3542;48.812;9.146;2023-04-06T13:01:13;15.20;59.40
7004;DHT22;3542;48.812;9.146;2023-04-06T13:03:40;15.50;59.70
7004;DHT22;3542;48.812;9.146;2023-04-06T13:06:06;15.80;61.80
7004;DHT22;3542;48.812;9.146;2023-04-06T13:08:33;15.80;58.20
7004;DHT22;3542;48.812;9.146;2023-04-06T13:10:59;15.40;56.80
7004;DHT22;3542;48.812;9.146;2023-04-06T13:13:28;15.00;56.80
7004;DHT22;3542;48.812;9.146;2023-04-06T13:16:06;14.90;58.20
7004;DHT22;3542;48.812;9.146;2023-04-06T13:18:32;14.90;59.10
7004;DHT22;3542;48.812;9.146;2023-04-06T13:20:58;14.70;59.80
7004;DHT22;3542;48.812;9.146;2023-04-06T13:23:25;14.70;59.20
7004;DHT22;3542;48.812;9.146;2023-04-06T13:26:06;14.70;59.50
7004;DHT22;3542;48.812;9.146;2023-04-06T13:28:34;14.90;60.70
7004;DHT22;3542;48.812;9.146;2023-04-06T13:31:01;15.20;59.80
7004;DHT22;3542;48.812;9.146;2023-04-06T13:33:27;15.20;57.90
7004;DHT22;3542;48.812;9.146;2023-04-06T13:35:53;15.20;58.40
7004;DHT22;3542;48.812;9.146;2023-04-06T13:38:19;15.20;58.60
7004;DHT22;3542;48.812;9.146;2023-04-06T13:40:44;15.10;58.20
7004;DHT22;3542;48.812;9.146;2023-04-06T13:43:10;15.10;57.30
7004;DHT22;3542;48.812;9.146;2023-04-06T13:45:37;15.10;58.00
7004;DHT22;3542;48.812;9.146;2023-04-06T13:48:02;15.00;57.50
7004;DHT22;3542;48.812;9.146;2023-04-06T13:50:28;15.10;60.70
7004;DHT22;3542;48.812;9.146;2023-04-06T13:52:54;15.00;57.90
7004;DHT22;3542;48.812;9.146;2023-04-06T13:55:20;15.10;57.70
7004;DHT22;3542;48.812;9.146;2023-04-06T13:57:46;15.10;58.80
7004;DHT22;3542;48.812;9.146;2023-04-06T14:00:12;15.30;58.50
7004;DHT22;3542;48.812;9.146;2023-04-06T14:02:38;15.30;58.70
7004;DHT22;3542;48.812;9.146;2023-04-06T14:05:04;15.30;57.00
7004;DHT22;3542;48.812;9.146;2023-04-06T14:07:30;15.40;58.90
7004;DHT22;3542;48.812;9.146;2023-04-06T14:09:55;15.50;57.60
7004;DHT22;3542;48.812;9.146;2023-04-06T14:12:21;15.40;57.10
7004;DHT22;3542;48.812;9.146;2023-04-06T14:14:46;15.30;57.00
7004;DHT22;3542;48.812;9.146;2023-04-06T14:17:12;15.30;57.40
7004;DHT22;3542;48.812;9.146;2023-04-06T14:19:38;15.50;57.80
7004;DHT22;3542;48.812;9.146;2023-04-06T14:22:04;15.40;57.10
7004;DHT22;3542;48.812;9.146;2023-04-06T14:24:30;15.50;57.90
7004;DHT22;3542;48.812;9.146;2023-04-06T14:26:56;15.70;58.40
7004;DHT22;3542;48.812;9.146;2023-04-06T14:29:22;15.60;56.30
7004;DHT22;3542;48.812;9.146;2023-04-06T14:31:48;15.40;56.90
7004;DHT22;3542;48.812;9.146;2023-04-06T14:34:13;15.20;56.80
7004;DHT22;3542;48.812;9.146;2023-04-06T14:36:40;15.30;58.10
7004;DHT22;3542;48.812;9.146;2023-04-06T14:39:06;15.40;57.30
7004;DHT22;3542;48.812;9.146;2023-04-06T14:41:33;15.40;57.30
7004;DHT22;3542;48.812;9.146;2023-04-06T14:43:59;15.20;56.90
7004;DHT22;3542;48.812;9.146;2023-04-06T14:46:25;15.20;57.30
7004;DHT22;3542;48.812;9.146;2023-04-06T14:48:54;15.10;57.90
7004;DHT22;3542;48.812;9.146;2023-04-06T14:51:19;15.20;57.80
7004;DHT22;3542;48.812;9.146;2023-04-06T14:53:45;15.20;59.00
7004;DHT22;3542;48.812;9.146;2023-04-06T14:56:10;15.30;60.00
7004;DHT22;3542;48.812;9.146;2023-04-06T14:58:36;15.20;57.20
7004;DHT22;3542;48.812;9.146;2023-04-06T15:01:02;15.20;57.40
7004;DHT22;3542;48.812;9.146;2023-04-06T15:03:28;15.10;57.00
7004;DHT22;3542;48.812;9.146;2023-04-06T15:05:55;15.10;57.00
7004;DHT22;3542;48.812;9.146;2023-04-06T15:08:22;15.00;57.20
7004;DHT22;3542;48.812;9.146;2023-04-06T15:10:51;15.00;58.70
7004;DHT22;3542;48.812;9.146;2023-04-06T15:13:17;14.90;58.00
7004;DHT22;3542;48.812;9.146;2023-04-06T15:15:43;14.80;57.70
7004;DHT22;3542;48.812;9.146;2023-04-06T15:18:10;14.70;59.10
7004;DHT22;3542;48.812;9.146;2023-04-06T15:20:36;14.70;59.20
7004;DHT22;3542;48.812;9.146;2023-04-06T15:23:02;14.70;58.60
7004;DHT22;3542;48.812;9.146;2023-04-06T15:25:29;14.80;57.70
7004;DHT22;3542;48.812;9.146;2023-04-06T15:27:55;14.50;57.20
7004;DHT22;3542;48.812;9.146;2023-04-06T15:30:21;14.40;58.10
7004;DHT22;3542;48.812;9.146;2023-04-06T15:32:53;14.40;57.80
7004;DHT22;3542;48.812;9.146;2023-04-06T15:35:20;14.40;57.40
7004;DHT22;3542;48.812;9.146;2023-04-06T15:37:46;14.40;59.10
7004;DHT22;3542;48.812;9.146;2023-04-06T15:40:11;14.30;58.70
7004;DHT22;3542;48.812;9.146;2023-04-06T15:42:39;14.40;58.30
7004;DHT22;3542;48.812;9.146;2023-04-06T15:45:05;14.40;59.20
7004;DHT22;3542;48.812;9.146;2023-04-06T15:47:31;14.30;60.00
7004;DHT22;3542;48.812;9.146;2023-04-06T15:49:57;14.30;60.00
7004;DHT22;3542;48.812;9.146;2023-04-06T15:52:23;14.30;61.00
7004;DHT22;3542;48.812;9.146;2023-04-06T15:54:48;14.40;60.20
7004;DHT22;3542;48.812;9.146;2023-04-06T15:57:14;14.20;59.50
7004;DHT22;3542;48.812;9.146;2023-04-06T15:59:39;14.10;60.00
7004;DHT22;3542;48.812;9.146;2023-04-06T16:02:05;14.10;61.80
7004;DHT22;3542;48.812;9.146;2023-04-06T16:04:30;14.10;64.30
7004;DHT22;3542;48.812;9.146;2023-04-06T16:06:56;14.00;65.70
7004;DHT22;3542;48.812;9.146;2023-04-06T16:09:21;13.90;66.20
7004;DHT22;3542;48.812;9.146;2023-04-06T16:11:47;13.90;63.30
7004;DHT22;3542;48.812;9.146;2023-04-06T16:14:12;14.00;63.10
7004;DHT22;3542;48.812;9.146;2023-04-06T16:16:38;13.90;65.00
7004;DHT22;3542;48.812;9.146;2023-04-06T16:19:04;14.00;65.30
7004;DHT22;3542;48.812;9.146;2023-04-06T16:21:29;13.80;68.10
7004;DHT22;3542;48.812;9.146;2023-04-06T16:23:55;13.80;65.80
7004;DHT22;3542;48.812;9.146;2023-04-06T16:26:21;13.80;67.20
7004;DHT22;3542;48.812;9.146;2023-04-06T16:28:46;13.70;65.80
7004;DHT22;3542;48.812;9.146;2023-04-06T16:31:22;13.60;66.30
7004;DHT22;3542;48.812;9.146;2023-04-06T16:33:49;13.60;68.70
7004;DHT22;3542;48.812;9.146;2023-04-06T16:36:24;13.50;69.50
7004;DHT22;3542;48.812;9.146;2023-04-06T16:38:51;13.40;71.90
7004;DHT22;3542;48.812;9.146;2023-04-06T16:41:17;13.30;71.60
7004;DHT22;3542;48.812;9.146;2023-04-06T16:43:43;13.20;72.50
7004;DHT22;3542;48.812;9.146;2023-04-06T16:46:08;13.20;74.70
7004;DHT22;3542;48.812;9.146;2023-04-06T16:48:34;13.10;74.60
7004;DHT22;3542;48.812;9.146;2023-04-06T16:51:07;13.00;76.60
7004;DHT22;3542;48.812;9.146;2023-04-06T16:53:37;13.00;77.50
7004;DHT22;3542;48.812;9.146;2023-04-06T16:56:03;12.80;79.00
7004;DHT22;3542;48.812;9.146;2023-04-06T16:58:34;12.80;79.50
7004;DHT22;3542;48.812;9.146;2023-04-06T17:01:02;12.70;82.00
7004;DHT22;3542;48.812;9.146;2023-04-06T17:03:28;12.70;82.50
7004;DHT22;3542;48.812;9.146;2023-04-06T17:05:54;12.50;81.90
7004;DHT22;3542;48.812;9.146;2023-04-06T17:08:19;12.50;81.90
7004;DHT22;3542;48.812;9.146;2023-04-06T17:10:45;12.40;76.50
7004;DHT22;3542;48.812;9.146;2023-04-06T17:13:10;12.30;76.50
7004;DHT22;3542;48.812;9.146;2023-04-06T17:15:36;12.20;75.40
7004;DHT22;3542;48.812;9.146;2023-04-06T17:18:02;12.10;77.50
7004;DHT22;3542;48.812;9.146;2023-04-06T17:20:27;12.00;75.40
7004;DHT22;3542;48.812;9.146;2023-04-06T17:22:53;12.00;74.20
7004;DHT22;3542;48.812;9.146;2023-04-06T17:25:19;11.90;74.30
7004;DHT22;3542;48.812;9.146;2023-04-06T17:27:44;11.90;74.90
7004;DHT22;3542;48.812;9.146;2023-04-06T17:30:12;11.90;73.90
7004;DHT22;3542;48.812;9.146;2023-04-06T17:32:38;11.90;72.90
7004;DHT22;3542;48.812;9.146;2023-04-06T17:35:03;11.80;72.80